LFSG/EPL METAR and TAF weather

Enter ICAO airport designator
Station Type Date Time Source
LFSG METAR 2021/01/16 02:30 UTC NOAA

LFSG 160230Z AUTO 23003KT 4400 R26/1000U BR NSC M08/M09 Q1028


Station Type Date Time Source
LFSG Decoded METAR 2021/01/16 02:30 UTC NOAA

Station name not available
Jan 15, 2021 - 09:30 PM EST / 2021.01.16 0230 UTC
Wind: from the SW (230 degrees) at 3 MPH (3 KT):0
Visibility: 2 mile(s):0
Weather: mist
Temperature: 17 F (-8 C)
Dew Point: 15 F (-9 C)
Relative Humidity: 92%
Pressure (altimeter): 30.36 in. Hg (1028 hPa)
ob: LFSG 160230Z AUTO 23003KT 4400 R26/1000U BR NSC M08/M09 Q1028
cycle: 2

Station Type Date Time Source
LFSG TAF UTC NOAA

Error!

Example: see airport list